Time;durP1;ratioP1;P1;durP2;ratioP2;P2;SDS_P1;SDS_P2;PMS_P1;PMS_P2;Temp;Humidity;BMP_temperature;BMP_pressure;BME280_temperature;BME280_humidity;BME280_pressure;Samples;Min_cycle;Max_cycle;Signal;HPM_P1;HPM_P2
2022/11/26 00:00:52;;;;;;;;;;;;;;;6.25;79.68;101967.31;5090750;28;19912;-61
2022/11/26 00:03:18;;;;;;;;;;;;;;;6.26;79.62;101971.66;5105753;28;19924;-62
2022/11/26 00:05:44;;;;;;;;;;;;;;;6.27;79.66;101965.53;5099048;28;20386;-63
2022/11/26 00:08:14;;;;;;;;;;;;;;;6.28;79.74;101969.00;5100636;28;19947;-61
2022/11/26 00:10:40;;;;;;;;;;;;;;;6.30;79.48;101975.91;5102693;28;19968;-61
2022/11/26 00:13:13;;;;;;;;;;;;;;;6.30;79.55;101975.91;5098428;28;19936;-62
2022/11/26 00:15:38;;;;;;;;;;;;;;;6.31;79.48;101984.63;5105235;28;20290;-62
2022/11/26 00:18:03;;;;;;;;;;;;;;;6.31;79.71;101980.25;5103060;28;21155;-62
2022/11/26 00:20:30;;;;;;;;;;;;;;;6.32;79.45;101989.81;5095920;27;19959;-61
2022/11/26 00:22:57;;;;;;;;;;;;;;;6.31;79.72;101988.09;5089000;28;19919;-58
2022/11/26 00:25:26;;;;;;;;;;;;;;;6.29;79.40;101982.03;5107914;28;19920;-61
2022/11/26 00:27:53;;;;;;;;;;;;;;;6.27;79.45;101976.00;5110671;27;20378;-60
2022/11/26 00:30:20;;;;;;;;;;;;;;;6.28;79.43;101976.84;5104126;28;19938;-62
2022/11/26 00:32:45;;;;;;;;;;;;;;;6.30;79.54;101981.13;5100546;27;19983;-60
2022/11/26 00:35:11;;;;;;;;;;;;;;;6.32;79.41;101981.13;5110079;28;19963;-60
2022/11/26 00:37:45;;;;;;;;;;;;;;;6.33;79.63;101985.47;5110608;28;19920;-64
2022/11/26 00:40:17;;;;;;;;;;;;;;;6.31;79.38;101982.84;5102757;28;19928;-61
2022/11/26 00:42:43;;;;;;;;;;;;;;;6.31;79.41;101985.47;5103832;27;21131;-64
2022/11/26 00:45:18;;;;;;;;;;;;;;;6.33;79.35;101999.38;5103862;27;20434;-61
2022/11/26 00:47:44;;;;;;;;;;;;;;;6.31;79.42;101993.31;5107216;27;19915;-63
2022/11/26 00:50:13;;;;;;;;;;;;;;;6.31;79.55;101997.69;5104495;27;19973;-65
2022/11/26 00:52:39;;;;;;;;;;;;;;;6.31;79.61;102005.53;5104876;27;19946;-62
2022/11/26 00:55:15;;;;;;;;;;;;;;;6.29;79.75;102005.56;5098924;27;20366;-59
2022/11/26 00:57:41;;;;;;;;;;;;;;;6.29;79.55;102018.63;5095839;27;19963;-59
2022/11/26 01:00:13;;;;;;;;;;;;;;;6.28;79.56;102019.50;5110043;27;19967;-60
2022/11/26 01:02:38;;;;;;;;;;;;;;;6.28;79.52;102016.91;5085922;28;19923;-64
2022/11/26 01:05:03;;;;;;;;;;;;;;;6.28;79.35;102022.13;5109524;27;19919;-61
2022/11/26 01:07:29;;;;;;;;;;;;;;;6.28;79.64;102019.50;5106714;27;20301;-60
2022/11/26 01:09:54;;;;;;;;;;;;;;;6.27;79.63;102020.44;5104716;27;19926;-59
2022/11/26 01:12:19;;;;;;;;;;;;;;;6.28;79.50;102019.50;5105134;28;19974;-61
2022/11/26 01:14:45;;;;;;;;;;;;;;;6.27;79.74;102023.03;5099224;27;19939;-62
2022/11/26 01:17:11;;;;;;;;;;;;;;;6.27;79.59;102027.41;5100983;27;20014;-63
2022/11/26 01:19:36;;;;;;;;;;;;;;;6.27;79.51;102027.41;5088396;28;19929;-64
2022/11/26 01:22:01;;;;;;;;;;;;;;;6.28;79.81;102029.97;5106725;27;19924;-62
2022/11/26 01:24:26;;;;;;;;;;;;;;;6.28;79.66;102035.19;5109149;27;19990;-63
2022/11/26 01:26:52;;;;;;;;;;;;;;;6.30;79.78;102035.19;5112614;27;19930;-62
2022/11/26 01:29:18;;;;;;;;;;;;;;;6.29;79.86;102036.06;5102125;27;19915;-60
2022/11/26 01:31:43;;;;;;;;;;;;;;;6.28;79.55;102036.97;5094908;28;19927;-61
2022/11/26 01:34:08;;;;;;;;;;;;;;;6.27;79.40;102043.97;5098557;28;19939;-62
2022/11/26 01:36:35;;;;;;;;;;;;;;;6.27;79.63;102038.72;5106327;27;19927;-61
2022/11/26 01:39:02;;;;;;;;;;;;;;;6.27;79.83;102046.56;5105137;27;19923;-63
2022/11/26 01:42:04;;;;;;;;;;;;;;;6.28;79.66;102045.66;5106293;28;19927;-58
2022/11/26 01:44:30;;;;;;;;;;;;;;;6.29;79.69;102044.75;5018477;28;19976;-64
2022/11/26 01:46:56;;;;;;;;;;;;;;;6.30;79.78;102045.66;5062940;28;19928;-61
2022/11/26 01:49:24;;;;;;;;;;;;;;;6.30;79.57;102041.25;5102328;28;19970;-62
2022/11/26 01:51:56;;;;;;;;;;;;;;;6.30;79.65;102043.88;5093113;27;19923;-62
2022/11/26 01:54:21;;;;;;;;;;;;;;;6.31;79.50;102052.59;5097981;28;20540;-61
2022/11/26 01:56:48;;;;;;;;;;;;;;;6.30;79.75;102049.09;5097311;28;19924;-61
2022/11/26 01:59:17;;;;;;;;;;;;;;;6.30;79.86;102051.72;5103517;27;19920;-62
2022/11/26 02:01:43;;;;;;;;;;;;;;;6.30;79.77;102049.09;5102173;27;19923;-61
2022/11/26 02:04:08;;;;;;;;;;;;;;;6.29;79.77;102051.75;5103677;28;19946;-62
2022/11/26 02:06:33;;;;;;;;;;;;;;;6.28;79.95;102055.25;5102780;27;20366;-61
2022/11/26 02:09:00;;;;;;;;;;;;;;;6.27;79.64;102054.41;5107517;27;19923;-65
2022/11/26 02:11:25;;;;;;;;;;;;;;;6.31;79.52;102053.44;5097314;27;20497;-64
2022/11/26 02:13:53;;;;;;;;;;;;;;;6.34;80.07;102055.16;5100944;27;20030;-64
2022/11/26 02:16:23;;;;;;;;;;;;;;;6.33;79.87;102064.75;5099660;28;19955;-62
2022/11/26 02:19:00;;;;;;;;;;;;;;;6.32;79.93;102063.00;5085219;28;19950;-61
2022/11/26 02:21:27;;;;;;;;;;;;;;;6.34;79.99;102070.84;5107439;28;19955;-60
2022/11/26 02:23:52;;;;;;;;;;;;;;;6.35;79.72;102072.56;5087046;28;19920;-62
2022/11/26 02:26:36;;;;;;;;;;;;;;;6.35;79.85;102078.66;5100804;27;20385;-59
2022/11/26 02:29:13;;;;;;;;;;;;;;;6.35;79.70;102077.81;5102810;27;19943;-62
2022/11/26 02:31:44;;;;;;;;;;;;;;;6.34;79.74;102081.31;5104708;27;20386;-62
2022/11/26 02:34:10;;;;;;;;;;;;;;;6.34;79.70;102087.38;5101559;28;20014;-64
2022/11/26 02:36:54;;;;;;;;;;;;;;;6.33;79.92;102080.44;5106394;28;20481;-63
2022/11/26 02:39:21;;;;;;;;;;;;;;;6.34;79.81;102082.16;5099795;27;19923;-62
2022/11/26 02:41:48;;;;;;;;;;;;;;;6.35;79.78;102083.88;5098604;27;19919;-63
2022/11/26 02:44:15;;;;;;;;;;;;;;;6.34;79.63;102084.75;5097330;28;19930;-62
2022/11/26 02:46:41;;;;;;;;;;;;;;;6.37;79.73;102089.94;5102351;28;19919;-63
2022/11/26 02:49:09;;;;;;;;;;;;;;;6.36;79.73;102096.06;5082063;28;19959;-62
2022/11/26 02:51:34;;;;;;;;;;;;;;;6.35;79.59;102094.34;5104301;27;19920;-63
2022/11/26 02:54:00;;;;;;;;;;;;;;;6.35;79.63;102096.09;5105093;27;20267;-63
2022/11/26 02:56:26;;;;;;;;;;;;;;;6.35;79.73;102099.56;5104258;28;19916;-62
2022/11/26 02:58:53;;;;;;;;;;;;;;;6.33;79.67;102096.13;5100289;28;20349;-61
2022/11/26 03:01:27;;;;;;;;;;;;;;;6.31;79.76;102105.72;5095081;27;19924;-61
2022/11/26 03:03:54;;;;;;;;;;;;;;;6.33;80.05;102105.72;5100252;28;20402;-63
2022/11/26 03:06:20;;;;;;;;;;;;;;;6.30;79.82;102101.38;5106015;27;19923;-65
2022/11/26 03:08:45;;;;;;;;;;;;;;;6.31;79.81;102110.97;5098942;28;19964;-60
2022/11/26 03:11:11;;;;;;;;;;;;;;;6.30;79.79;102105.78;5099179;28;20341;-64
2022/11/26 03:13:36;;;;;;;;;;;;;;;6.29;79.87;102115.34;5100882;28;19950;-62
2022/11/26 03:16:03;;;;;;;;;;;;;;;6.30;80.22;102118.84;5089945;28;20329;-63
2022/11/26 03:18:28;;;;;;;;;;;;;;;6.28;80.08;102113.63;5097393;28;19924;-65
2022/11/26 03:20:54;;;;;;;;;;;;;;;6.28;79.80;102113.63;5099296;28;19927;-63
2022/11/26 03:23:19;;;;;;;;;;;;;;;6.28;79.86;102118.00;5097731;28;20315;-63
2022/11/26 03:25:44;;;;;;;;;;;;;;;6.28;79.84;102113.63;5100488;28;20387;-64
2022/11/26 03:28:10;;;;;;;;;;;;;;;6.28;80.14;102118.00;5086606;28;19919;-62
2022/11/26 03:30:35;;;;;;;;;;;;;;;6.28;80.00;102124.06;5092896;28;19924;-65
2022/11/26 03:33:00;;;;;;;;;;;;;;;6.25;79.86;102119.78;5100680;28;19948;-60
2022/11/26 03:35:25;;;;;;;;;;;;;;;6.29;79.90;102136.25;5097718;28;20366;-60
2022/11/26 03:37:51;;;;;;;;;;;;;;;6.31;80.01;102137.09;5102182;28;19920;-62
2022/11/26 03:40:16;;;;;;;;;;;;;;;6.30;79.96;102132.75;5098885;28;20532;-61
2022/11/26 03:42:42;;;;;;;;;;;;;;;6.32;79.93;102136.22;5099602;28;19928;-64
2022/11/26 03:45:08;;;;;;;;;;;;;;;6.30;79.92;102127.53;5095464;28;20334;-63
2022/11/26 03:47:33;;;;;;;;;;;;;;;6.32;80.02;102141.44;5100394;28;19919;-61
2022/11/26 03:49:58;;;;;;;;;;;;;;;6.34;79.80;102139.66;5100096;28;20358;-61
2022/11/26 03:52:24;;;;;;;;;;;;;;;6.34;79.83;102139.66;5099154;28;20295;-65
2022/11/26 03:54:49;;;;;;;;;;;;;;;6.32;80.05;102141.44;5100617;27;20320;-59
2022/11/26 03:57:15;;;;;;;;;;;;;;;6.29;80.14;102154.56;5108455;27;20509;-62
2022/11/26 03:59:40;;;;;;;;;;;;;;;6.29;80.15;102151.09;5105267;27;19924;-59
2022/11/26 04:02:06;;;;;;;;;;;;;;;6.26;80.18;102146.78;5109909;28;19986;-61
2022/11/26 04:04:31;;;;;;;;;;;;;;;6.27;80.33;102153.75;5105194;27;19974;-62
2022/11/26 04:06:56;;;;;;;;;;;;;;;6.26;80.20;102157.25;5109138;27;19927;-62
2022/11/26 04:09:22;;;;;;;;;;;;;;;6.27;80.20;102153.75;5105929;27;19922;-60
2022/11/26 04:11:47;;;;;;;;;;;;;;;6.28;80.18;102160.69;5106750;27;19927;-60
2022/11/26 04:14:12;;;;;;;;;;;;;;;6.27;80.30;102158.97;5105880;27;19920;-64
2022/11/26 04:16:38;;;;;;;;;;;;;;;6.28;80.25;102165.06;5091281;27;19915;-60
2022/11/26 04:19:03;;;;;;;;;;;;;;;6.28;80.47;102160.69;5109407;27;19950;-60
2022/11/26 04:21:29;;;;;;;;;;;;;;;6.29;80.46;102157.19;5102830;27;20368;-62
2022/11/26 04:23:54;;;;;;;;;;;;;;;6.29;80.22;102157.19;5106135;27;19920;-59
2022/11/26 04:26:19;;;;;;;;;;;;;;;6.30;80.40;102164.13;5103678;27;19923;-61
2022/11/26 04:28:45;;;;;;;;;;;;;;;6.31;80.17;102173.69;5103030;27;19923;-60
2022/11/26 04:31:10;;;;;;;;;;;;;;;6.32;80.25;102175.44;5106824;27;19931;-58
2022/11/26 04:33:36;;;;;;;;;;;;;;;6.33;80.22;102173.69;5108645;28;19931;-58
2022/11/26 04:36:01;;;;;;;;;;;;;;;6.33;80.43;102178.94;5107844;27;20310;-61
2022/11/26 04:38:27;;;;;;;;;;;;;;;6.33;80.35;102176.31;5100924;27;19930;-61
2022/11/26 04:40:52;;;;;;;;;;;;;;;6.33;80.54;102186.75;5101626;27;20025;-60
2022/11/26 04:43:17;;;;;;;;;;;;;;;6.34;80.32;102188.50;5102913;27;20294;-62
2022/11/26 04:45:42;;;;;;;;;;;;;;;6.34;80.19;102191.09;5101608;28;19963;-63
2022/11/26 04:48:08;;;;;;;;;;;;;;;6.32;80.33;102198.97;5104709;27;20390;-61
2022/11/26 04:50:33;;;;;;;;;;;;;;;6.33;80.17;102200.69;5089518;28;19970;-58
2022/11/26 04:52:58;;;;;;;;;;;;;;;6.34;80.03;102198.94;5098729;27;20038;-63
2022/11/26 04:55:24;;;;;;;;;;;;;;;6.33;80.25;102211.16;5107492;27;19945;-60
2022/11/26 04:57:49;;;;;;;;;;;;;;;6.33;80.47;102210.28;5100046;28;20054;-62
2022/11/26 05:00:15;;;;;;;;;;;;;;;6.34;80.17;102212.88;5101582;27;19923;-63
2022/11/26 05:02:41;;;;;;;;;;;;;;;6.38;80.40;102218.91;5103484;28;19924;-62
2022/11/26 05:05:06;;;;;;;;;;;;;;;6.39;80.33;102220.63;5093023;27;20303;-64
2022/11/26 05:07:32;;;;;;;;;;;;;;;6.40;80.12;102223.25;5105684;27;20314;-63
2022/11/26 05:09:57;;;;;;;;;;;;;;;6.42;79.99;102228.44;5105500;28;20010;-64
2022/11/26 05:12:22;;;;;;;;;;;;;;;6.42;80.01;102231.06;5106130;28;19922;-65
2022/11/26 05:14:48;;;;;;;;;;;;;;;6.42;79.97;102231.06;5097164;27;19955;-63
2022/11/26 05:17:13;;;;;;;;;;;;;;;6.43;80.23;102235.41;5099339;27;20339;-61
2022/11/26 05:19:38;;;;;;;;;;;;;;;6.46;80.05;102243.19;5104625;27;19952;-65
2022/11/26 05:22:04;;;;;;;;;;;;;;;6.48;79.71;102240.53;5103566;27;19922;-65
2022/11/26 05:24:29;;;;;;;;;;;;;;;6.43;79.84;102237.16;5108213;27;20398;-63
2022/11/26 05:26:54;;;;;;;;;;;;;;;6.39;79.95;102242.44;5108090;27;19915;-61
2022/11/26 05:29:19;;;;;;;;;;;;;;;6.38;80.14;102250.28;5100117;28;19919;-63
2022/11/26 05:31:45;;;;;;;;;;;;;;;6.32;80.53;102242.56;5102893;28;19919;-65
2022/11/26 05:34:10;;;;;;;;;;;;;;;6.38;80.42;102253.78;5102866;27;19934;-62
2022/11/26 05:36:35;;;;;;;;;;;;;;;6.42;80.13;102251.13;5101929;27;20440;-62
2022/11/26 05:39:01;;;;;;;;;;;;;;;6.42;79.86;102257.19;5102250;28;19927;-65
2022/11/26 05:41:26;;;;;;;;;;;;;;;6.46;79.72;102258.00;5105193;28;19916;-63
2022/11/26 05:43:51;;;;;;;;;;;;;;;6.48;79.81;102258.84;5101903;27;19926;-65
2022/11/26 05:46:17;;;;;;;;;;;;;;;6.47;79.91;102259.72;5089383;27;19930;-62
2022/11/26 05:48:42;;;;;;;;;;;;;;;6.49;79.71;102263.19;5100431;28;19920;-63
2022/11/26 05:51:08;;;;;;;;;;;;;;;6.54;79.83;102269.22;5105224;27;19912;-65
2022/11/26 05:53:33;;;;;;;;;;;;;;;6.52;79.80;102264.00;5099599;28;19927;-63
2022/11/26 05:55:58;;;;;;;;;;;;;;;6.53;79.44;102277.97;5104895;27;19916;-62
2022/11/26 05:58:24;;;;;;;;;;;;;;;6.49;79.56;102278.88;5105051;27;19927;-64
2022/11/26 06:00:50;;;;;;;;;;;;;;;6.50;79.63;102280.63;5104294;28;19915;-59
2022/11/26 06:03:15;;;;;;;;;;;;;;;6.44;80.06;102284.19;5086911;28;20472;-64
2022/11/26 06:05:40;;;;;;;;;;;;;;;6.47;79.76;102291.13;5098199;28;20022;-64
2022/11/26 06:08:05;;;;;;;;;;;;;;;6.51;79.84;102284.97;5103470;27;19927;-63
2022/11/26 06:10:31;;;;;;;;;;;;;;;6.49;79.53;102289.34;5105217;28;19923;-63
2022/11/26 06:12:56;;;;;;;;;;;;;;;6.51;79.93;102295.41;5103263;28;20603;-62
2022/11/26 06:15:22;;;;;;;;;;;;;;;6.50;79.74;102301.53;5101334;27;19969;-63
2022/11/26 06:17:47;;;;;;;;;;;;;;;6.49;79.62;102291.97;5104945;27;19919;-62
2022/11/26 06:20:12;;;;;;;;;;;;;;;6.51;79.64;102298.03;5102629;27;19964;-60
2022/11/26 06:22:38;;;;;;;;;;;;;;;6.50;79.63;102306.75;5106049;27;19989;-62
2022/11/26 06:25:05;;;;;;;;;;;;;;;6.44;79.71;102312.06;5096261;28;19916;-62
2022/11/26 06:27:32;;;;;;;;;;;;;;;6.45;79.96;102311.19;5093509;27;19931;-61
2022/11/26 06:29:57;;;;;;;;;;;;;;;6.37;80.06;102322.66;5104039;27;20374;-60
2022/11/26 06:32:22;;;;;;;;;;;;;;;6.35;80.11;102332.25;5108917;27;19920;-60
2022/11/26 06:34:48;;;;;;;;;;;;;;;6.38;80.32;102333.94;5103494;28;19935;-61
2022/11/26 06:37:13;;;;;;;;;;;;;;;6.37;80.41;102335.72;5101589;27;20011;-62
2022/11/26 06:39:38;;;;;;;;;;;;;;;6.44;80.53;102335.59;5107673;27;19921;-62
2022/11/26 06:42:04;;;;;;;;;;;;;;;6.48;80.36;102339.91;5098305;28;19943;-58
2022/11/26 06:44:29;;;;;;;;;;;;;;;6.50;80.03;102338.16;5102403;27;19941;-59
2022/11/26 06:46:54;;;;;;;;;;;;;;;6.53;80.02;102336.34;5097078;28;19924;-62
2022/11/26 06:49:20;;;;;;;;;;;;;;;6.56;79.80;102335.44;5095461;27;19920;-64
2022/11/26 06:51:45;;;;;;;;;;;;;;;6.56;79.89;102343.28;5100604;27;19927;-61
2022/11/26 06:54:10;;;;;;;;;;;;;;;6.54;80.02;102351.16;5104658;28;19965;-59
2022/11/26 06:56:36;;;;;;;;;;;;;;;6.52;80.06;102354.69;5101524;27;19946;-59
2022/11/26 06:59:01;;;;;;;;;;;;;;;6.52;80.14;102358.16;5105916;28;19915;-62
2022/11/26 07:01:26;;;;;;;;;;;;;;;6.53;80.23;102353.81;5098548;27;19923;-64
2022/11/26 07:03:52;;;;;;;;;;;;;;;6.53;80.23;102367.72;5099360;28;20002;-63
2022/11/26 07:06:19;;;;;;;;;;;;;;;6.54;80.22;102366.84;5101711;28;19919;-61
2022/11/26 07:08:44;;;;;;;;;;;;;;;6.55;80.34;102362.50;5104056;28;19925;-63
2022/11/26 07:11:10;;;;;;;;;;;;;;;6.55;80.08;102367.72;5104659;28;19919;-62
2022/11/26 07:13:35;;;;;;;;;;;;;;;6.55;80.24;102362.50;5072632;28;20337;-61
2022/11/26 07:16:01;;;;;;;;;;;;;;;6.54;80.55;102371.22;5104043;28;19936;-58
2022/11/26 07:18:27;;;;;;;;;;;;;;;6.56;80.43;102372.06;5093776;28;19926;-59
2022/11/26 07:20:52;;;;;;;;;;;;;;;6.55;80.55;102372.94;5097768;28;19916;-63
2022/11/26 07:23:17;;;;;;;;;;;;;;;6.53;80.39;102379.94;5104022;28;19931;-59
2022/11/26 07:25:43;;;;;;;;;;;;;;;6.56;80.42;102385.16;5101841;28;20298;-61
2022/11/26 07:28:08;;;;;;;;;;;;;;;6.59;80.44;102384.22;5087130;28;19928;-63
2022/11/26 07:30:34;;;;;;;;;;;;;;;6.58;80.61;102391.19;5092616;27;19959;-62
2022/11/26 07:32:59;;;;;;;;;;;;;;;6.60;80.40;102391.19;5088792;28;20341;-63
2022/11/26 07:35:24;;;;;;;;;;;;;;;6.62;80.47;102392.88;5105761;27;19970;-63
2022/11/26 07:37:50;;;;;;;;;;;;;;;6.64;80.32;102393.72;5110879;27;20009;-62
2022/11/26 07:40:15;;;;;;;;;;;;;;;6.65;80.27;102395.47;5112969;28;19916;-64
2022/11/26 07:42:40;;;;;;;;;;;;;;;6.67;80.35;102400.66;5109380;27;19922;-62
2022/11/26 07:45:06;;;;;;;;;;;;;;;6.68;80.23;102405.00;5111251;28;19916;-63
2022/11/26 07:47:31;;;;;;;;;;;;;;;6.69;80.42;102405.00;5111904;27;19924;-62
2022/11/26 07:49:56;;;;;;;;;;;;;;;6.69;80.15;102402.38;5104003;28;19920;-61
2022/11/26 07:52:22;;;;;;;;;;;;;;;6.74;80.28;102404.03;5102706;27;19930;-63
2022/11/26 07:54:47;;;;;;;;;;;;;;;6.77;80.21;102404.00;5098728;27;20423;-62
2022/11/26 07:57:12;;;;;;;;;;;;;;;6.79;80.17;102407.47;5103951;27;19927;-61
2022/11/26 07:59:38;;;;;;;;;;;;;;;6.82;80.21;102417.91;5109816;27;19923;-61
2022/11/26 08:02:03;;;;;;;;;;;;;;;6.79;80.13;102420.56;5106747;28;19924;-60
2022/11/26 08:04:29;;;;;;;;;;;;;;;6.78;80.25;102411.84;5103960;27;20406;-59
2022/11/26 08:06:54;;;;;;;;;;;;;;;6.78;80.23;102424.06;5107397;28;19926;-60
2022/11/26 08:09:19;;;;;;;;;;;;;;;6.79;80.33;102424.03;5106273;27;20425;-60
2022/11/26 08:11:45;;;;;;;;;;;;;;;6.79;80.34;102434.50;5104822;27;19919;-58
2022/11/26 08:14:10;;;;;;;;;;;;;;;6.82;80.57;102436.22;5102837;27;19932;-63
2022/11/26 08:16:36;;;;;;;;;;;;;;;6.83;80.39;102430.09;5129316;22;19922;-57
2022/11/26 08:19:04;;;;;;;;;;;;;;;6.83;80.46;102440.56;5078751;28;19933;-59
2022/11/26 08:21:29;;;;;;;;;;;;;;;6.83;80.42;102446.63;5082360;28;19920;-57
2022/11/26 08:23:55;;;;;;;;;;;;;;;6.85;80.36;102444.88;5082421;28;19932;-59
2022/11/26 08:26:21;;;;;;;;;;;;;;;6.88;80.34;102443.09;5081602;28;19916;-56
2022/11/26 08:28:46;;;;;;;;;;;;;;;6.89;80.23;102445.69;5078120;28;19948;-60
2022/11/26 08:31:13;;;;;;;;;;;;;;;6.90;80.49;102451.78;5082287;28;20565;-58
2022/11/26 08:33:38;;;;;;;;;;;;;;;6.92;80.66;102444.78;5088934;28;20090;-60
2022/11/26 08:36:04;;;;;;;;;;;;;;;6.96;80.61;102452.56;5069735;28;20018;-56
2022/11/26 08:38:29;;;;;;;;;;;;;;;6.98;80.14;102456.03;5083380;28;20006;-57
2022/11/26 08:40:58;;;;;;;;;;;;;;;6.97;80.53;102454.31;5089102;28;19920;-60
2022/11/26 08:43:23;;;;;;;;;;;;;;;6.99;80.33;102463.00;5072499;28;19977;-56
2022/11/26 08:45:53;;;;;;;;;;;;;;;6.99;80.38;102463.00;5080773;28;19960;-57
2022/11/26 08:48:18;;;;;;;;;;;;;;;6.98;80.74;102476.09;5085963;28;19988;-59
2022/11/26 08:50:43;;;;;;;;;;;;;;;7.03;80.67;102473.44;5081160;28;20333;-61
2022/11/26 08:53:09;;;;;;;;;;;;;;;7.05;80.58;102472.50;5084665;28;19928;-60
2022/11/26 08:55:34;;;;;;;;;;;;;;;7.08;80.56;102482.94;5089800;28;19931;-60
2022/11/26 08:57:59;;;;;;;;;;;;;;;7.11;80.62;102482.88;5084608;28;19924;-60
2022/11/26 09:00:25;;;;;;;;;;;;;;;7.14;80.74;102479.34;5075767;28;19938;-59
2022/11/26 09:02:50;;;;;;;;;;;;;;;7.16;80.44;102470.56;5079496;28;20448;-60
2022/11/26 09:05:15;;;;;;;;;;;;;;;7.20;80.35;102471.38;5077504;28;19954;-60
2022/11/26 09:07:40;;;;;;;;;;;;;;;7.22;80.39;102476.63;5082364;28;19962;-59
2022/11/26 09:10:06;;;;;;;;;;;;;;;7.24;80.58;102487.94;5075273;28;19974;-61
2022/11/26 09:12:32;;;;;;;;;;;;;;;7.26;80.46;102497.50;5077107;28;19924;-58
2022/11/26 09:14:57;;;;;;;;;;;;;;;7.26;80.23;102494.88;5076361;28;19934;-59
2022/11/26 09:17:22;;;;;;;;;;;;;;;7.29;80.40;102486.97;5082624;28;20502;-60
2022/11/26 09:19:47;;;;;;;;;;;;;;;7.29;80.39;102497.44;5087409;28;19920;-57
2022/11/26 09:22:13;;;;;;;;;;;;;;;7.33;80.32;102498.25;5087627;28;19928;-58
2022/11/26 09:24:38;;;;;;;;;;;;;;;7.32;80.29;102507.00;5075838;28;19942;-59
2022/11/26 09:27:04;;;;;;;;;;;;;;;7.33;80.09;102506.13;5082230;28;19958;-59
2022/11/26 09:29:29;;;;;;;;;;;;;;;7.33;80.27;102504.34;5082073;28;19924;-58
2022/11/26 09:31:54;;;;;;;;;;;;;;;7.34;80.12;102505.22;5078009;28;19978;-59
2022/11/26 09:34:20;;;;;;;;;;;;;;;7.36;79.93;102513.03;5082999;28;20003;-60
2022/11/26 09:36:45;;;;;;;;;;;;;;;7.36;80.33;102516.53;5087659;28;19928;-59
2022/11/26 09:39:12;;;;;;;;;;;;;;;7.37;80.33;102510.41;5079470;28;19950;-57
2022/11/26 09:41:37;;;;;;;;;;;;;;;7.38;80.51;102516.50;5089997;28;19916;-60
2022/11/26 09:44:03;;;;;;;;;;;;;;;7.39;80.36;102507.75;5056596;28;20844;-59
2022/11/26 09:46:34;;;;;;;;;;;;;;;7.41;80.33;102519.09;5085255;28;19916;-60
2022/11/26 09:49:01;;;;;;;;;;;;;;;7.43;80.25;102519.94;5080206;28;19925;-60
2022/11/26 09:51:27;;;;;;;;;;;;;;;7.43;80.15;102519.94;5081245;28;19927;-59
2022/11/26 09:53:53;;;;;;;;;;;;;;;7.43;80.21;102525.16;5084622;28;19925;-57
2022/11/26 09:56:25;;;;;;;;;;;;;;;7.45;80.36;102533.88;5077376;28;19932;-54
2022/11/26 09:59:00;;;;;;;;;;;;;;;7.48;80.50;102528.59;5083542;28;19928;-60
2022/11/26 10:01:26;;;;;;;;;;;;;;;7.52;80.30;102532.88;5081766;28;19916;-58
2022/11/26 10:03:51;;;;;;;;;;;;;;;7.54;80.26;102530.25;5079283;28;19916;-59
2022/11/26 10:06:25;;;;;;;;;;;;;;;7.56;80.22;102541.56;5085542;28;20528;-56
2022/11/26 10:09:00;;;;;;;;;;;;;;;7.56;80.18;102531.94;5080223;28;19927;-58
2022/11/26 10:11:34;;;;;;;;;;;;;;;7.56;80.24;102545.03;5079035;28;19916;-59
2022/11/26 10:14:08;;;;;;;;;;;;;;;7.54;80.22;102546.81;5075309;28;20333;-58
2022/11/26 10:16:41;;;;;;;;;;;;;;;7.53;80.11;102547.69;5084461;28;19924;-59
2022/11/26 10:19:17;;;;;;;;;;;;;;;7.54;80.35;102545.97;5080322;28;19916;-56
2022/11/26 10:21:49;;;;;;;;;;;;;;;7.56;80.20;102538.94;5075082;28;19920;-58
2022/11/26 10:24:17;;;;;;;;;;;;;;;7.56;80.24;102542.41;5062747;28;20367;-58
2022/11/26 10:26:43;;;;;;;;;;;;;;;7.56;80.26;102537.19;5081620;28;19947;-59
2022/11/26 10:29:14;;;;;;;;;;;;;;;7.57;80.15;102538.91;5075166;28;20019;-59
2022/11/26 10:31:41;;;;;;;;;;;;;;;7.59;80.10;102546.72;5082951;28;19916;-58
2022/11/26 10:34:14;;;;;;;;;;;;;;;7.60;79.96;102553.69;5081021;28;19931;-59
2022/11/26 10:36:41;;;;;;;;;;;;;;;7.61;80.21;102553.69;5084775;28;19942;-56
2022/11/26 10:39:11;;;;;;;;;;;;;;;7.63;80.29;102553.66;5079706;28;19932;-58
2022/11/26 10:41:36;;;;;;;;;;;;;;;7.63;80.15;102558.91;5077743;28;19922;-57
2022/11/26 10:44:20;;;;;;;;;;;;;;;7.63;80.28;102562.41;5084783;28;19916;-60
2022/11/26 10:46:46;;;;;;;;;;;;;;;7.63;80.20;102559.78;5077804;28;19955;-56
2022/11/26 10:49:22;;;;;;;;;;;;;;;7.65;80.43;102558.84;5076647;28;19981;-56
2022/11/26 10:51:49;;;;;;;;;;;;;;;7.67;80.24;102557.09;5075988;28;19919;-60
2022/11/26 10:54:33;;;;;;;;;;;;;;;7.66;80.47;102558.84;5072461;28;20391;-59
2022/11/26 10:57:10;;;;;;;;;;;;;;;7.67;80.39;102559.72;5080638;28;19963;-56
2022/11/26 10:59:39;;;;;;;;;;;;;;;7.69;80.72;102564.06;5072512;28;20047;-57
2022/11/26 11:02:13;;;;;;;;;;;;;;;7.70;80.53;102565.78;5081786;28;19920;-55
2022/11/26 11:04:42;;;;;;;;;;;;;;;7.72;80.52;102568.38;5084320;28;19951;-57
2022/11/26 11:07:26;;;;;;;;;;;;;;;7.72;80.77;102563.13;5085033;28;19999;-56
2022/11/26 11:10:00;;;;;;;;;;;;;;;7.75;80.74;102574.41;5086100;28;19916;-55
2022/11/26 11:12:25;;;;;;;;;;;;;;;7.79;80.57;102575.22;5085228;28;20096;-59
2022/11/26 11:14:51;;;;;;;;;;;;;;;7.82;80.55;102575.19;5078732;28;20395;-55
2022/11/26 11:17:25;;;;;;;;;;;;;;;7.83;80.48;102576.91;5075430;28;19920;-57
2022/11/26 11:19:50;;;;;;;;;;;;;;;7.82;80.64;102583.03;5076565;28;19927;-54
2022/11/26 11:22:17;;;;;;;;;;;;;;;7.84;80.55;102583.88;5060712;28;19917;-55
2022/11/26 11:24:44;;;;;;;;;;;;;;;7.87;80.69;102575.97;5087780;28;19938;-55
2022/11/26 11:27:20;;;;;;;;;;;;;;;7.92;80.68;102570.66;5083947;28;20017;-56
2022/11/26 11:29:45;;;;;;;;;;;;;;;7.97;80.52;102579.31;5059796;28;19921;-54
2022/11/26 11:32:29;;;;;;;;;;;;;;;8.02;80.51;102581.84;5075907;28;19928;-59
2022/11/26 11:34:54;;;;;;;;;;;;;;;8.05;80.40;102587.03;5070301;28;19928;-59
2022/11/26 11:37:20;;;;;;;;;;;;;;;8.06;80.30;102583.53;5056876;28;19924;-58
2022/11/26 11:40:00;;;;;;;;;;;;;;;8.07;80.26;102585.25;5076885;28;20296;-57
2022/11/26 11:42:27;;;;;;;;;;;;;;;8.12;80.45;102588.66;5081405;28;19955;-57
2022/11/26 11:44:54;;;;;;;;;;;;;;;8.16;80.33;102585.09;5062814;28;19925;-57
2022/11/26 11:47:31;;;;;;;;;;;;;;;8.18;80.30;102583.31;5058912;28;20594;-60
2022/11/26 11:50:02;;;;;;;;;;;;;;;8.21;80.28;102588.50;5075700;28;20026;-57
2022/11/26 11:52:57;;;;;;;;;;;;;;;8.25;80.16;102581.44;5085052;28;19924;-59
2022/11/26 11:55:28;;;;;;;;;;;;;;;8.29;80.27;102580.50;5026481;28;19925;-60
2022/11/26 11:57:59;;;;;;;;;;;;;;;8.30;80.21;102583.97;5085977;28;20418;-59
2022/11/26 12:00:32;;;;;;;;;;;;;;;8.28;80.13;102586.63;5065934;28;19927;-56
2022/11/26 12:03:06;;;;;;;;;;;;;;;8.30;80.37;102587.47;5082844;28;19923;-57
2022/11/26 12:05:55;;;;;;;;;;;;;;;8.34;80.22;102583.88;5088646;28;19967;-59
2022/11/26 12:08:46;;;;;;;;;;;;;;;8.36;79.97;102587.34;5054411;28;19963;-60
2022/11/26 12:11:20;;;;;;;;;;;;;;;8.36;80.16;102591.72;5058490;28;19955;-57
2022/11/26 12:13:48;;;;;;;;;;;;;;;8.39;80.06;102592.53;5077685;28;19916;-58
2022/11/26 12:16:16;;;;;;;;;;;;;;;8.36;80.13;102597.81;5097458;28;20560;-60
2022/11/26 12:18:47;;;;;;;;;;;;;;;8.38;80.19;102597.81;5089848;28;19959;-59
2022/11/26 12:21:15;;;;;;;;;;;;;;;8.38;80.28;102600.44;5097044;28;19912;-57
2022/11/26 12:23:43;;;;;;;;;;;;;;;8.36;80.40;102599.59;5084565;28;20271;-58
2022/11/26 12:26:14;;;;;;;;;;;;;;;8.39;80.20;102591.69;5086474;28;19986;-59
2022/11/26 12:28:42;;;;;;;;;;;;;;;8.39;80.23;102597.78;5083518;28;19916;-58
2022/11/26 12:31:18;;;;;;;;;;;;;;;8.37;80.57;102593.47;5083194;28;19920;-57
2022/11/26 12:33:52;;;;;;;;;;;;;;;8.38;80.84;102597.81;5094274;28;19939;-59
2022/11/26 12:36:27;;;;;;;;;;;;;;;8.34;81.12;102589.13;5093543;28;19912;-60
2022/11/26 12:38:56;;;;;;;;;;;;;;;8.44;80.98;102595.06;5085769;28;19920;-58
2022/11/26 12:41:30;;;;;;;;;;;;;;;8.46;80.94;102595.91;5091952;28;19916;-58
2022/11/26 12:44:04;;;;;;;;;;;;;;;8.36;81.70;102596.97;5081737;28;19947;-60
2022/11/26 12:46:35;;;;;;;;;;;;;;;8.29;82.20;102601.47;5078256;28;19982;-60
2022/11/26 12:49:00;;;;;;;;;;;;;;;8.37;82.13;102610.06;5087750;28;19990;-59